Bay Point, New York
Current Conditions -  °F | °C
As of 11:07 PM on Wednesday 22 Oct 2014 (Local Time) from KFOK Reporting Station
Overcast Overcast  
Wind Chill: 54°   Ceiling: 1500
Heat Index: 54°   Visibility: 10mi
Dew Point: 51°   Wind: 20mph
Humidity: 90%   Direction: 20°NNE
Pressure: 29.67"   Gusts: 28mph
Location:  40.9692°N, 72.306°W
Report Text: KFOK 230307Z AUTO 02017G24KT 10SM OVC015 12/11 A2967 RMK AO2 T01220106 TSNO
Loading
Personal Weather Stations






























Interactive Weather Map
Tropical Storm Tracking
New forecast layout! Learn more

10-Day Weather Forecast

Advertisements
Track Severe Weather on mobile